createdAt,value
2018-03-30T00:00:47.692Z,1005.5
2018-03-30T00:05:48.205Z,1005.5
2018-03-30T00:10:47.792Z,1005.5
2018-03-30T00:15:49.735Z,1005.5
2018-03-30T00:20:49.439Z,1005.5
2018-03-30T00:25:47.402Z,1005.5
2018-03-30T00:30:47.670Z,1005.5
2018-03-30T00:35:54.288Z,1005.5
2018-03-30T00:40:47.245Z,1005.4
2018-03-30T00:45:47.823Z,1005.4
2018-03-30T00:50:54.283Z,1005.3
2018-03-30T00:55:47.501Z,1005.3
2018-03-30T01:00:48.517Z,1005.1
2018-03-30T01:05:53.445Z,1005
2018-03-30T01:10:48.993Z,1005
2018-03-30T01:15:47.575Z,1004.9
2018-03-30T01:20:49.228Z,1004.9
2018-03-30T01:25:47.286Z,1004.9
2018-03-30T01:30:47.976Z,1004.8
2018-03-30T01:35:49.653Z,1004.8
2018-03-30T01:40:47.831Z,1004.8
2018-03-30T01:45:48.428Z,1004.8
2018-03-30T01:50:52.615Z,1004.8
2018-03-30T01:55:47.582Z,1004.7
2018-03-30T02:00:48.884Z,1004.7
2018-03-30T02:05:57.633Z,1004.6
2018-03-30T02:10:47.426Z,1004.6
2018-03-30T02:15:48.006Z,1004.6
2018-03-30T02:20:50.083Z,1004.6
2018-03-30T02:25:50.146Z,1004.7
2018-03-30T02:30:50.635Z,1004.6
2018-03-30T02:35:50.988Z,1004.6
2018-03-30T02:40:52.576Z,1004.5
2018-03-30T02:45:49.355Z,1004.5
2018-03-30T02:50:52.060Z,1004.4
2018-03-30T02:55:49.366Z,1004.4
2018-03-30T03:00:47.718Z,1004.3
2018-03-30T03:12:25.036Z,1004.2
2018-03-30T03:13:26.199Z,1004.2
2018-03-30T03:15:50.682Z,1004.1
2018-03-30T03:24:54.639Z,1004.1
2018-03-30T03:25:49.040Z,1004.1
2018-03-30T03:35:07.766Z,1004
2018-03-30T03:35:48.832Z,1003.9
2018-03-30T03:40:48.538Z,1003.9
2018-03-30T03:45:48.512Z,1004
2018-03-30T03:50:48.195Z,1003.9
2018-03-30T03:55:48.286Z,1003.9
2018-03-30T04:00:58.820Z,1003.9
2018-03-30T04:05:57.175Z,1003.8
2018-03-30T04:10:48.999Z,1003.8
2018-03-30T04:15:48.578Z,1003.9
2018-03-30T04:20:47.610Z,1003.9
2018-03-30T04:25:48.060Z,1003.9
2018-03-30T04:30:50.582Z,1003.8
2018-03-30T04:35:53.682Z,1003.8
2018-03-30T04:40:51.664Z,1003.8
2018-03-30T04:45:49.054Z,1003.8
2018-03-30T04:50:49.296Z,1003.8
2018-03-30T04:55:51.205Z,1003.8
2018-03-30T05:00:49.407Z,1003.7
2018-03-30T05:05:48.046Z,1003.7
2018-03-30T05:10:52.592Z,1003.8
2018-03-30T05:15:48.201Z,1003.8
2018-03-30T05:20:49.026Z,1003.8
2018-03-30T05:25:48.072Z,1003.8
2018-03-30T05:31:11.101Z,1003.8
2018-03-30T05:35:47.705Z,1003.9
2018-03-30T05:40:49.518Z,1003.9
2018-03-30T05:45:52.322Z,1003.9
2018-03-30T05:50:48.020Z,1003.9
2018-03-30T05:55:48.278Z,1003.9
2018-03-30T06:00:48.809Z,1003.8
2018-03-30T06:05:48.231Z,1003.8
2018-03-30T06:10:49.593Z,1003.9
2018-03-30T06:15:47.889Z,1003.8
2018-03-30T06:20:48.623Z,1003.8
2018-03-30T06:25:51.817Z,1003.8
2018-03-30T06:31:19.577Z,1003.8
2018-03-30T06:35:47.131Z,1003.8
2018-03-30T06:40:52.882Z,1003.8
2018-03-30T06:45:53.931Z,1003.8
2018-03-30T06:50:47.696Z,1003.8
2018-03-30T06:55:47.504Z,1003.8
2018-03-30T07:00:47.661Z,1003.8
2018-03-30T07:05:47.773Z,1003.8
2018-03-30T07:10:47.619Z,1003.8
2018-03-30T07:15:46.919Z,1003.7
2018-03-30T07:20:47.542Z,1003.7
2018-03-30T07:25:48.938Z,1003.7
2018-03-30T07:30:47.960Z,1003.6
2018-03-30T07:35:55.043Z,1003.6
2018-03-30T07:40:55.784Z,1003.5
2018-03-30T07:45:47.595Z,1003.5
2018-03-30T07:50:57.549Z,1003.4
2018-03-30T07:55:47.940Z,1003.4
2018-03-30T08:00:48.338Z,1003.4
2018-03-30T08:06:02.880Z,1003.3
2018-03-30T08:10:46.956Z,1003.3
2018-03-30T08:15:51.826Z,1003.3
2018-03-30T08:20:55.144Z,1003.4
2018-03-30T08:25:47.378Z,1003.3
2018-03-30T08:30:47.241Z,1003.3
2018-03-30T08:35:49.792Z,1003.2
2018-03-30T08:40:46.888Z,1003
2018-03-30T08:45:47.143Z,1003
2018-03-30T08:50:50.104Z,1002.9
2018-03-30T08:55:46.922Z,1002.9
2018-03-30T09:00:46.965Z,1002.9
2018-03-30T09:05:46.779Z,1002.8
2018-03-30T09:10:46.860Z,1002.8
2018-03-30T09:15:46.530Z,1002.8
2018-03-30T09:20:46.856Z,1002.7
2018-03-30T09:25:46.675Z,1002.6
2018-03-30T09:30:47.496Z,1002.6
2018-03-30T09:35:46.567Z,1002.6
2018-03-30T09:40:46.946Z,1002.7
2018-03-30T09:45:46.590Z,1002.7
2018-03-30T09:50:47.527Z,1002.6
2018-03-30T10:06:27.835Z,1002.6
2018-03-30T10:12:37.648Z,1002.5
2018-03-30T10:17:48.479Z,1002.3
2018-03-30T10:17:48.871Z,1002.3
2018-03-30T10:17:52.190Z,1002.2
2018-03-30T10:20:46.726Z,1002.2
2018-03-30T10:25:46.401Z,1002.2
2018-03-30T10:34:52.098Z,1002.1
2018-03-30T10:35:46.859Z,1002
2018-03-30T10:40:46.462Z,1002
2018-03-30T10:45:47.793Z,1001.9
2018-03-30T10:50:46.655Z,1001.8
2018-03-30T10:55:46.534Z,1001.7
2018-03-30T11:00:46.137Z,1001.6
2018-03-30T11:05:46.310Z,1001.6
2018-03-30T11:10:46.162Z,1001.5
2018-03-30T11:15:46.151Z,1001.6
2018-03-30T11:20:46.101Z,1001.5
2018-03-30T11:25:46.273Z,1001.4
2018-03-30T11:30:46.374Z,1001.2
2018-03-30T11:35:46.339Z,1001.2
2018-03-30T11:40:46.287Z,1001.1
2018-03-30T11:45:46.324Z,1001
2018-03-30T11:50:46.344Z,1000.9
2018-03-30T11:55:46.346Z,1000.7
2018-03-30T12:00:46.322Z,1000.6
2018-03-30T12:05:45.976Z,1000.5
2018-03-30T12:10:45.973Z,1000.5
2018-03-30T12:15:46.071Z,1000.3
2018-03-30T12:20:45.924Z,1000.3
2018-03-30T12:25:46.059Z,1000.2
2018-03-30T12:30:46.099Z,1000.1
2018-03-30T12:35:46.212Z,1000.1
2018-03-30T12:40:46.253Z,1000
2018-03-30T12:45:46.425Z,1000.1
2018-03-30T12:50:46.171Z,1000.2
2018-03-30T12:55:45.980Z,1000.2
2018-03-30T13:00:46.400Z,1000.3
2018-03-30T13:05:46.278Z,1000.3
2018-03-30T13:10:46.223Z,1000.3
2018-03-30T13:15:46.276Z,1000.2
2018-03-30T13:20:46.164Z,1000
2018-03-30T13:25:46.011Z,999.9
2018-03-30T13:30:46.362Z,999.9
2018-03-30T13:35:46.063Z,999.7
2018-03-30T13:40:46.212Z,999.6
2018-03-30T13:45:45.998Z,999.5
2018-03-30T13:50:46.147Z,999.4
2018-03-30T13:55:46.281Z,999.4
2018-03-30T14:00:46.142Z,999.4
2018-03-30T14:05:45.799Z,999.3
2018-03-30T14:10:46.126Z,999.2
2018-03-30T14:15:46.242Z,999
2018-03-30T14:20:46.151Z,999.1
2018-03-30T14:25:46.157Z,999
2018-03-30T14:30:46.056Z,998.8
2018-03-30T14:35:46.061Z,998.6
2018-03-30T14:40:46.504Z,998.5
2018-03-30T14:45:46.000Z,998.4
2018-03-30T14:50:45.889Z,998.4
2018-03-30T14:55:46.791Z,998.2
2018-03-30T15:00:45.874Z,998.1
2018-03-30T15:05:45.977Z,998
2018-03-30T15:10:46.536Z,998
2018-03-30T15:15:45.705Z,997.9
2018-03-30T15:20:46.016Z,997.9
2018-03-30T15:25:46.067Z,997.8
2018-03-30T15:30:46.122Z,997.9
2018-03-30T15:35:45.981Z,997.9
2018-03-30T15:40:46.102Z,997.9
2018-03-30T15:45:46.157Z,997.9
2018-03-30T15:50:45.852Z,997.9
2018-03-30T15:55:46.318Z,997.8
2018-03-30T16:00:45.731Z,997.7
2018-03-30T16:05:45.959Z,997.7
2018-03-30T16:10:46.098Z,997.5
2018-03-30T16:15:45.862Z,997.5
2018-03-30T16:20:45.958Z,997.6
2018-03-30T16:25:45.880Z,997.5
2018-03-30T16:30:45.882Z,997.6
2018-03-30T16:35:45.566Z,997.5
2018-03-30T16:40:45.946Z,997.5
2018-03-30T16:45:45.820Z,997.4
2018-03-30T16:50:46.000Z,997.4
2018-03-30T16:55:46.021Z,997.4
2018-03-30T17:00:45.799Z,997.3
2018-03-30T17:05:45.553Z,997.3
2018-03-30T17:10:46.010Z,997.2
2018-03-30T17:15:45.513Z,997.2
2018-03-30T17:20:45.695Z,997.2
2018-03-30T17:25:45.931Z,997.2
2018-03-30T17:30:45.946Z,997.3
2018-03-30T17:35:46.843Z,997.2
2018-03-30T17:40:45.883Z,997.3
2018-03-30T17:45:45.915Z,997.2
2018-03-30T17:50:46.211Z,997.2
2018-03-30T17:55:45.506Z,997.2
2018-03-30T18:00:45.450Z,997.1
2018-03-30T18:05:46.112Z,997.2
2018-03-30T18:10:45.576Z,997.2
2018-03-30T18:15:45.904Z,997.3
2018-03-30T18:20:45.463Z,997.3
2018-03-30T18:25:45.936Z,997.3
2018-03-30T18:30:45.735Z,997.3
2018-03-30T18:35:46.886Z,997.3
2018-03-30T18:40:45.603Z,997.3
2018-03-30T18:45:45.453Z,997.4
2018-03-30T18:50:45.790Z,997.3
2018-03-30T18:55:45.542Z,997.5
2018-03-30T19:00:45.397Z,997.6
2018-03-30T19:05:45.581Z,997.6
2018-03-30T19:10:45.790Z,997.4
2018-03-30T19:15:45.306Z,997.5
2018-03-30T19:20:45.770Z,997.5
2018-03-30T19:25:45.452Z,997.5
2018-03-30T19:30:45.730Z,997.4
2018-03-30T19:35:45.650Z,997.5
2018-03-30T19:40:45.674Z,997.6
2018-03-30T19:45:45.827Z,997.9
2018-03-30T19:50:49.098Z,998.1
2018-03-30T19:55:47.357Z,998.2
2018-03-30T20:01:13.953Z,998.2
2018-03-30T20:05:46.468Z,998.3
2018-03-30T20:10:54.721Z,998.4
2018-03-30T20:15:47.794Z,998.4
2018-03-30T20:21:02.793Z,998.4
2018-03-30T20:25:46.204Z,998.3
2018-03-30T20:30:51.414Z,998.3
2018-03-30T20:35:45.777Z,998.3
2018-03-30T20:40:47.411Z,998.3
2018-03-30T20:45:46.430Z,998.2
2018-03-30T20:50:46.940Z,998.2
2018-03-30T20:55:48.728Z,998.2
2018-03-30T21:00:49.428Z,998.2
2018-03-30T21:05:46.205Z,998.2
2018-03-30T21:10:47.541Z,998.2
2018-03-30T21:15:48.521Z,998.1
2018-03-30T21:21:05.543Z,998.2
2018-03-30T21:25:53.238Z,998.2
2018-03-30T21:31:11.895Z,998.2
2018-03-30T21:35:49.529Z,998.1
2018-03-30T21:41:18.737Z,998.1
2018-03-30T21:45:49.692Z,998.1
2018-03-30T21:50:49.414Z,998
2018-03-30T21:55:49.084Z,998.1
2018-03-30T22:00:47.944Z,998.2
2018-03-30T22:05:48.910Z,998.2
2018-03-30T22:10:49.246Z,998.3
2018-03-30T22:15:49.517Z,998.4
2018-03-30T22:20:47.138Z,998.5
2018-03-30T22:25:46.851Z,998.4
2018-03-30T22:30:48.698Z,998.4
2018-03-30T22:35:46.437Z,998.3
2018-03-30T22:40:47.908Z,998.3
2018-03-30T22:45:45.469Z,998.4
2018-03-30T22:50:45.828Z,998.4
2018-03-30T22:55:46.299Z,998.4
2018-03-30T23:00:45.772Z,998.4
2018-03-30T23:05:45.901Z,998.6
2018-03-30T23:10:46.051Z,998.6
2018-03-30T23:15:46.395Z,998.5
2018-03-30T23:20:46.637Z,998.5
2018-03-30T23:25:45.615Z,998.5
2018-03-30T23:30:45.919Z,998.5
2018-03-30T23:35:45.894Z,998.5
2018-03-30T23:40:45.758Z,998.6
2018-03-30T23:45:45.771Z,998.6
2018-03-30T23:50:46.772Z,998.6
2018-03-30T23:55:45.709Z,998.6
